Fidato — PB5970 — position and weather

sailwx.info

Track history (hours):
 
Tides and Currents Weather Stations Pressure Air Temp Water Temp Dewpoint Dewpoint Depression Visibility Wind Speed Wind Dir Waves Ship Positions

Fidato

Last reported at 2014-Jul-20 08:30 UTC. Time now 2014-Jul-24 21:41 UTC.
Position N 49°43' E 008°25'.

Length 135 m; draft 2.5 m.

Type: Ship. MMSI: 244670975.

Date/timePositionNaut miles runAvg speedWind from/ knotsBaromVisibWave heightAir tempDewpointWater temp
2014-Jul-20 08:30N 49°43' E 008°25'90 2.3
2014-Jul-18 17:05N 50°55' E 006°59'16 3.3
2014-Jul-18 12:23N 51°09' E 006°48'3 3.3
2014-Jul-18 11:33N 51°11' E 006°45'3 2.6
2014-Jul-18 10:33N 51°13' E 006°45'16 3.1
2014-Jul-18 05:25N 51°29' E 006°41'4 3.6
2014-Jul-18 04:13N 51°34' E 006°41'38 2.5
2014-Jul-17 13:25N 51°52' E 005°48'5 6.2
2014-Jul-17 12:32N 51°54' E 005°40'6 6.1
2014-Jul-17 11:33N 51°53' E 005°30'5 5.4
2014-Jul-17 10:33N 51°50' E 005°24'5 4.8
2014-Jul-17 09:33N 51°49' E 005°16'6 5.9
2014-Jul-17 08:33N 51°49' E 005°06'7 7.0
2014-Jul-17 07:33N 51°50' E 004°55'9 9.1
2014-Jul-17 06:33N 51°49' E 004°40'9 8.8
2014-Jul-17 05:33N 51°55' E 004°29'1 0.8
2014-Jul-17 04:33N 51°54' E 004°29'0 0.0
2014-Jul-17 03:33N 51°54' E 004°29'0 0.0
2014-Jul-17 02:33N 51°54' E 004°29'6 5.7
2014-Jul-17 01:33N 51°54' E 004°20'2 2.1
2014-Jul-17 00:33N 51°53' E 004°16'0 0.0
2014-Jul-16 23:33N 51°53' E 004°16'0 0.0
2014-Jul-16 22:33N 51°53' E 004°16'0 0.0
2014-Jul-16 21:33N 51°53' E 004°16'0 0.0
2014-Jul-16 20:33N 51°53' E 004°16'0 0.0
2014-Jul-16 19:34N 51°53' E 004°16'0 0.0
2014-Jul-16 18:33N 51°53' E 004°16'0 0.0
2014-Jul-16 17:33N 51°53' E 004°16'0 0.2
2014-Jul-16 16:33N 51°53' E 004°16'0 0.0
2014-Jul-16 15:33N 51°53' E 004°16'0 0.0
2014-Jul-16 14:33N 51°53' E 004°16'0 0.0
2014-Jul-16 13:33N 51°53' E 004°16'6 5.7
2014-Jul-16 12:33N 51°54' E 004°26'2 2.0
2014-Jul-16 11:33N 51°54' E 004°29'0 0.0
2014-Jul-16 10:33N 51°54' E 004°29'0 0.0
2014-Jul-16 09:33N 51°54' E 004°29'0 0.0
2014-Jul-16 08:33N 51°54' E 004°29'0 0.0
2014-Jul-16 07:33N 51°54' E 004°29'0 0.0
2014-Jul-16 06:33N 51°54' E 004°29'0 0.0
2014-Jul-16 05:33N 51°54' E 004°29'0 0.0
2014-Jul-16 04:33N 51°54' E 004°29'0 0.0
2014-Jul-16 03:33N 51°54' E 004°29'0 0.0
2014-Jul-16 02:33N 51°54' E 004°29'0 0.0
2014-Jul-16 01:33N 51°54' E 004°29'0 0.0
2014-Jul-16 00:33N 51°54' E 004°29'0 0.0
2014-Jul-15 23:33N 51°54' E 004°29'0 0.0
2014-Jul-15 22:33N 51°54' E 004°29'0 0.0
2014-Jul-15 21:33N 51°54' E 004°29'0 0.0
2014-Jul-15 20:33N 51°54' E 004°29'0 0.0
2014-Jul-15 19:33N 51°54' E 004°29'0 0.0
2014-Jul-15 18:33N 51°54' E 004°29'0 0.0
2014-Jul-15 17:33N 51°54' E 004°29'0 0.0
2014-Jul-15 16:32N 51°54' E 004°29'0 0.0
2014-Jul-15 15:33N 51°54' E 004°29'0 0.0
2014-Jul-15 14:33N 51°54' E 004°29'0 0.0
2014-Jul-15 13:33N 51°54' E 004°29'0 0.0
2014-Jul-15 12:33N 51°54' E 004°29'0 0.0
2014-Jul-15 11:33N 51°54' E 004°29'0 0.0
2014-Jul-15 10:33N 51°54' E 004°29'0 0.0
2014-Jul-15 09:33N 51°54' E 004°29'0 0.0
2014-Jul-15 08:33N 51°54' E 004°29'0 0.0
2014-Jul-15 07:33N 51°54' E 004°29'0 0.0
2014-Jul-15 06:33N 51°54' E 004°29'0 0.0
2014-Jul-15 05:33N 51°54' E 004°29'0 0.0
2014-Jul-15 04:33N 51°54' E 004°29'0 0.0
2014-Jul-15 03:33N 51°54' E 004°29'0 0.0
2014-Jul-15 02:33N 51°54' E 004°29'0 0.0
2014-Jul-15 01:33N 51°54' E 004°29'0 0.0
2014-Jul-15 00:33N 51°54' E 004°29'0 0.0
2014-Jul-14 23:33N 51°54' E 004°29'0 0.0
2014-Jul-14 22:33N 51°54' E 004°29'0 0.0
2014-Jul-14 21:33N 51°54' E 004°29'0 0.0
2014-Jul-14 20:33N 51°54' E 004°29'0 0.0
2014-Jul-14 19:33N 51°54' E 004°29'0 0.0
2014-Jul-14 18:33N 51°54' E 004°29'0 0.0
2014-Jul-14 17:33N 51°54' E 004°29'0 0.0
2014-Jul-14 16:33N 51°54' E 004°29'0 0.0
2014-Jul-14 15:33N 51°54' E 004°29'0 0.0
2014-Jul-14 14:33N 51°54' E 004°29'0 0.0
2014-Jul-14 13:33N 51°54' E 004°29'0 0.0
2014-Jul-14 12:33N 51°54' E 004°29'0 0.0
2014-Jul-14 11:33N 51°54' E 004°29'0 0.0
2014-Jul-14 10:33N 51°54' E 004°29'0 0.0
2014-Jul-14 09:33N 51°54' E 004°29'0 0.0
2014-Jul-14 08:33N 51°54' E 004°29'0 0.0
2014-Jul-14 07:33N 51°54' E 004°29'0 0.0
2014-Jul-14 06:33N 51°54' E 004°29'0 0.0
2014-Jul-14 05:33N 51°54' E 004°29'0 0.0
2014-Jul-14 04:33N 51°54' E 004°29'0 0.0
2014-Jul-14 03:33N 51°54' E 004°29'0 0.0
2014-Jul-14 02:33N 51°54' E 004°29'0 0.0
2014-Jul-14 01:33N 51°54' E 004°29'0 0.0
2014-Jul-14 00:33N 51°54' E 004°29'0 0.0
2014-Jul-13 23:33N 51°54' E 004°29'0 0.0
2014-Jul-13 22:33N 51°54' E 004°29'0 0.0
2014-Jul-13 21:33N 51°54' E 004°29'0 0.0
2014-Jul-13 20:33N 51°54' E 004°29'0 0.0
2014-Jul-13 19:33N 51°54' E 004°29'0 0.0
2014-Jul-13 18:33N 51°54' E 004°29'0 0.0
2014-Jul-13 17:33N 51°54' E 004°29'0 0.0
2014-Jul-13 16:33N 51°54' E 004°29'0 0.0
2014-Jul-13 15:33N 51°54' E 004°29'0 0.0
2014-Jul-13 14:33N 51°54' E 004°29'0 0.0
2014-Jul-13 13:33N 51°54' E 004°29'0 0.0
2014-Jul-13 12:33N 51°54' E 004°29'0 0.0
2014-Jul-13 11:33N 51°54' E 004°29'0 0.0
2014-Jul-13 10:33N 51°54' E 004°29'0 0.0
2014-Jul-13 09:33N 51°54' E 004°29'0 0.0
2014-Jul-13 08:33N 51°54' E 004°29'0 0.0
2014-Jul-13 07:33N 51°54' E 004°29'0 0.0
2014-Jul-13 06:33N 51°54' E 004°29'0 0.0
2014-Jul-13 05:33N 51°54' E 004°29'0 0.0
2014-Jul-13 04:33N 51°54' E 004°29'0 0.0
2014-Jul-13 03:33N 51°54' E 004°29'0 0.0
2014-Jul-13 02:33N 51°54' E 004°29'0 0.0
2014-Jul-13 01:33N 51°54' E 004°29'0 0.0
2014-Jul-13 00:33N 51°54' E 004°29'0 0.0
2014-Jul-12 23:33N 51°54' E 004°29'0 0.0
2014-Jul-12 22:33N 51°54' E 004°29'0 0.0
2014-Jul-12 21:33N 51°54' E 004°29'0 0.0
2014-Jul-12 20:33N 51°54' E 004°29'0 0.0
2014-Jul-12 19:33N 51°54' E 004°29'0 0.0
2014-Jul-12 18:33N 51°54' E 004°29'0 0.0
2014-Jul-12 17:33N 51°54' E 004°29'0 0.0
2014-Jul-12 16:33N 51°54' E 004°29'0 0.0
2014-Jul-12 15:33N 51°54' E 004°29'0 0.0
2014-Jul-12 14:33N 51°54' E 004°29'0 0.0
2014-Jul-12 13:33N 51°54' E 004°29'0 0.0
2014-Jul-12 12:33N 51°54' E 004°29'0 0.0
2014-Jul-12 11:33N 51°54' E 004°29'0 0.0
2014-Jul-12 10:33N 51°54' E 004°29'0 0.0
2014-Jul-12 09:33N 51°54' E 004°29'0 0.0
2014-Jul-12 08:33N 51°54' E 004°29'0 0.0
2014-Jul-12 07:33N 51°54' E 004°29'0 0.0
2014-Jul-12 06:33N 51°54' E 004°29'0 0.0
2014-Jul-12 05:33N 51°54' E 004°29'0 0.0
2014-Jul-12 04:33N 51°54' E 004°29'0 0.0
2014-Jul-12 03:33N 51°54' E 004°29'0 0.0
2014-Jul-12 02:33N 51°54' E 004°29'0 0.0
2014-Jul-12 01:33N 51°54' E 004°29'0 0.0
2014-Jul-12 00:33N 51°54' E 004°29'0 0.0
2014-Jul-11 23:33N 51°54' E 004°29'0 0.0
2014-Jul-11 22:33N 51°54' E 004°29'0 0.0
2014-Jul-11 21:33N 51°54' E 004°29'0 0.0
2014-Jul-11 20:33N 51°54' E 004°29'0 0.0
2014-Jul-11 19:33N 51°54' E 004°29'0 0.0
2014-Jul-11 18:33N 51°54' E 004°29'0 0.0
2014-Jul-11 17:33N 51°54' E 004°29'0 0.0
2014-Jul-11 16:33N 51°54' E 004°29'0 0.0
2014-Jul-11 15:33N 51°54' E 004°29'0 0.0
2014-Jul-11 14:33N 51°54' E 004°29'0 0.0
2014-Jul-11 13:33N 51°54' E 004°29'0 0.0
2014-Jul-11 12:33N 51°54' E 004°29'0 0.0
2014-Jul-11 11:33N 51°54' E 004°29'0 0.0
2014-Jul-11 10:33N 51°54' E 004°29'0 0.0
2014-Jul-11 09:33N 51°54' E 004°29'0 0.0
2014-Jul-11 08:33N 51°54' E 004°29'0 0.0
2014-Jul-11 07:33N 51°54' E 004°29'0 0.0
2014-Jul-11 06:33N 51°54' E 004°29'0 0.0
2014-Jul-11 05:33N 51°54' E 004°29'0 0.0
2014-Jul-11 04:33N 51°54' E 004°29'0 0.0
2014-Jul-11 03:33N 51°54' E 004°29'0 0.0
2014-Jul-11 02:33N 51°54' E 004°29'0 0.0
2014-Jul-11 01:33N 51°54' E 004°29'0 0.0
2014-Jul-11 00:33N 51°54' E 004°29'0 0.1
2014-Jul-10 23:33N 51°54' E 004°29'0 0.1
2014-Jul-10 22:33N 51°54' E 004°29'0 0.0
2014-Jul-10 21:33N 51°54' E 004°29'0 0.0
2014-Jul-10 20:33N 51°54' E 004°29'0 0.0
2014-Jul-10 19:33N 51°54' E 004°29'0 0.0
2014-Jul-10 18:33N 51°54' E 004°29'0 0.0
2014-Jul-10 17:33N 51°54' E 004°29'0 0.0
2014-Jul-10 16:33N 51°54' E 004°29'0 0.0
2014-Jul-10 15:33N 51°54' E 004°29'0 0.0
2014-Jul-10 14:33N 51°54' E 004°29'0 0.0
2014-Jul-10 13:33N 51°54' E 004°29'0 0.0
2014-Jul-10 12:33N 51°54' E 004°29'0 0.0
2014-Jul-10 11:33N 51°54' E 004°29'0 0.0
2014-Jul-10 10:33N 51°54' E 004°29'0 0.0
2014-Jul-10 09:33N 51°54' E 004°29'0 0.0
2014-Jul-10 08:33N 51°54' E 004°29'  
Track history (hours):
 
Tides and Currents Weather Stations Pressure Air Temp Water Temp Dewpoint Dewpoint Depression Visibility Wind Speed Wind Dir Waves Ship Positions

Fidato

Last reported at 2014-Jul-20 08:30 UTC. Time now 2014-Jul-24 21:41 UTC.
Position N 49°43' E 008°25'.

Length 135 m; draft 2.5 m.

Type: Ship. MMSI: 244670975.

Date/timePositionNaut miles runAvg speedWind from/ knotsBaromVisibWave heightAir tempDewpointWater temp
2014-Jul-20 08:30N 49°43' E 008°25'90 2.3
2014-Jul-18 17:05N 50°55' E 006°59'16 3.3
2014-Jul-18 12:23N 51°09' E 006°48'3 3.3
2014-Jul-18 11:33N 51°11' E 006°45'3 2.6
2014-Jul-18 10:33N 51°13' E 006°45'16 3.1
2014-Jul-18 05:25N 51°29' E 006°41'4 3.6
2014-Jul-18 04:13N 51°34' E 006°41'38 2.5
2014-Jul-17 13:25N 51°52' E 005°48'5 6.2
2014-Jul-17 12:32N 51°54' E 005°40'6 6.1
2014-Jul-17 11:33N 51°53' E 005°30'5 5.4
2014-Jul-17 10:33N 51°50' E 005°24'5 4.8
2014-Jul-17 09:33N 51°49' E 005°16'6 5.9
2014-Jul-17 08:33N 51°49' E 005°06'7 7.0
2014-Jul-17 07:33N 51°50' E 004°55'9 9.1
2014-Jul-17 06:33N 51°49' E 004°40'9 8.8
2014-Jul-17 05:33N 51°55' E 004°29'1 0.8
2014-Jul-17 04:33N 51°54' E 004°29'0 0.0
2014-Jul-17 03:33N 51°54' E 004°29'0 0.0
2014-Jul-17 02:33N 51°54' E 004°29'6 5.7
2014-Jul-17 01:33N 51°54' E 004°20'2 2.1
2014-Jul-17 00:33N 51°53' E 004°16'0 0.0
2014-Jul-16 23:33N 51°53' E 004°16'0 0.0
2014-Jul-16 22:33N 51°53' E 004°16'0 0.0
2014-Jul-16 21:33N 51°53' E 004°16'0 0.0
2014-Jul-16 20:33N 51°53' E 004°16'0 0.0
2014-Jul-16 19:34N 51°53' E 004°16'0 0.0
2014-Jul-16 18:33N 51°53' E 004°16'0 0.0
2014-Jul-16 17:33N 51°53' E 004°16'0 0.2
2014-Jul-16 16:33N 51°53' E 004°16'0 0.0
2014-Jul-16 15:33N 51°53' E 004°16'0 0.0
2014-Jul-16 14:33N 51°53' E 004°16'0 0.0
2014-Jul-16 13:33N 51°53' E 004°16'6 5.7
2014-Jul-16 12:33N 51°54' E 004°26'2 2.0
2014-Jul-16 11:33N 51°54' E 004°29'0 0.0
2014-Jul-16 10:33N 51°54' E 004°29'0 0.0
2014-Jul-16 09:33N 51°54' E 004°29'0 0.0
2014-Jul-16 08:33N 51°54' E 004°29'0 0.0
2014-Jul-16 07:33N 51°54' E 004°29'0 0.0
2014-Jul-16 06:33N 51°54' E 004°29'0 0.0
2014-Jul-16 05:33N 51°54' E 004°29'0 0.0
2014-Jul-16 04:33N 51°54' E 004°29'0 0.0
2014-Jul-16 03:33N 51°54' E 004°29'0 0.0
2014-Jul-16 02:33N 51°54' E 004°29'0 0.0
2014-Jul-16 01:33N 51°54' E 004°29'0 0.0
2014-Jul-16 00:33N 51°54' E 004°29'0 0.0
2014-Jul-15 23:33N 51°54' E 004°29'0 0.0
2014-Jul-15 22:33N 51°54' E 004°29'0 0.0
2014-Jul-15 21:33N 51°54' E 004°29'0 0.0
2014-Jul-15 20:33N 51°54' E 004°29'0 0.0
2014-Jul-15 19:33N 51°54' E 004°29'0 0.0
2014-Jul-15 18:33N 51°54' E 004°29'0 0.0
2014-Jul-15 17:33N 51°54' E 004°29'0 0.0
2014-Jul-15 16:32N 51°54' E 004°29'0 0.0
2014-Jul-15 15:33N 51°54' E 004°29'0 0.0
2014-Jul-15 14:33N 51°54' E 004°29'0 0.0
2014-Jul-15 13:33N 51°54' E 004°29'0 0.0
2014-Jul-15 12:33N 51°54' E 004°29'0 0.0
2014-Jul-15 11:33N 51°54' E 004°29'0 0.0
2014-Jul-15 10:33N 51°54' E 004°29'0 0.0
2014-Jul-15 09:33N 51°54' E 004°29'0 0.0
2014-Jul-15 08:33N 51°54' E 004°29'0 0.0
2014-Jul-15 07:33N 51°54' E 004°29'0 0.0
2014-Jul-15 06:33N 51°54' E 004°29'0 0.0
2014-Jul-15 05:33N 51°54' E 004°29'0 0.0
2014-Jul-15 04:33N 51°54' E 004°29'0 0.0
2014-Jul-15 03:33N 51°54' E 004°29'0 0.0
2014-Jul-15 02:33N 51°54' E 004°29'0 0.0
2014-Jul-15 01:33N 51°54' E 004°29'0 0.0
2014-Jul-15 00:33N 51°54' E 004°29'0 0.0
2014-Jul-14 23:33N 51°54' E 004°29'0 0.0
2014-Jul-14 22:33N 51°54' E 004°29'0 0.0
2014-Jul-14 21:33N 51°54' E 004°29'0 0.0
2014-Jul-14 20:33N 51°54' E 004°29'0 0.0
2014-Jul-14 19:33N 51°54' E 004°29'0 0.0
2014-Jul-14 18:33N 51°54' E 004°29'0 0.0
2014-Jul-14 17:33N 51°54' E 004°29'0 0.0
2014-Jul-14 16:33N 51°54' E 004°29'0 0.0
2014-Jul-14 15:33N 51°54' E 004°29'0 0.0
2014-Jul-14 14:33N 51°54' E 004°29'0 0.0
2014-Jul-14 13:33N 51°54' E 004°29'0 0.0
2014-Jul-14 12:33N 51°54' E 004°29'0 0.0
2014-Jul-14 11:33N 51°54' E 004°29'0 0.0
2014-Jul-14 10:33N 51°54' E 004°29'0 0.0
2014-Jul-14 09:33N 51°54' E 004°29'0 0.0
2014-Jul-14 08:33N 51°54' E 004°29'0 0.0
2014-Jul-14 07:33N 51°54' E 004°29'0 0.0
2014-Jul-14 06:33N 51°54' E 004°29'0 0.0
2014-Jul-14 05:33N 51°54' E 004°29'0 0.0
2014-Jul-14 04:33N 51°54' E 004°29'0 0.0
2014-Jul-14 03:33N 51°54' E 004°29'0 0.0
2014-Jul-14 02:33N 51°54' E 004°29'0 0.0
2014-Jul-14 01:33N 51°54' E 004°29'0 0.0
2014-Jul-14 00:33N 51°54' E 004°29'0 0.0
2014-Jul-13 23:33N 51°54' E 004°29'0 0.0
2014-Jul-13 22:33N 51°54' E 004°29'0 0.0
2014-Jul-13 21:33N 51°54' E 004°29'0 0.0
2014-Jul-13 20:33N 51°54' E 004°29'0 0.0
2014-Jul-13 19:33N 51°54' E 004°29'0 0.0
2014-Jul-13 18:33N 51°54' E 004°29'0 0.0
2014-Jul-13 17:33N 51°54' E 004°29'0 0.0
2014-Jul-13 16:33N 51°54' E 004°29'0 0.0
2014-Jul-13 15:33N 51°54' E 004°29'0 0.0
2014-Jul-13 14:33N 51°54' E 004°29'0 0.0
2014-Jul-13 13:33N 51°54' E 004°29'0 0.0
2014-Jul-13 12:33N 51°54' E 004°29'0 0.0
2014-Jul-13 11:33N 51°54' E 004°29'0 0.0
2014-Jul-13 10:33N 51°54' E 004°29'0 0.0
2014-Jul-13 09:33N 51°54' E 004°29'0 0.0
2014-Jul-13 08:33N 51°54' E 004°29'0 0.0
2014-Jul-13 07:33N 51°54' E 004°29'0 0.0
2014-Jul-13 06:33N 51°54' E 004°29'0 0.0
2014-Jul-13 05:33N 51°54' E 004°29'0 0.0
2014-Jul-13 04:33N 51°54' E 004°29'0 0.0
2014-Jul-13 03:33N 51°54' E 004°29'0 0.0
2014-Jul-13 02:33N 51°54' E 004°29'0 0.0
2014-Jul-13 01:33N 51°54' E 004°29'0 0.0
2014-Jul-13 00:33N 51°54' E 004°29'0 0.0
2014-Jul-12 23:33N 51°54' E 004°29'0 0.0
2014-Jul-12 22:33N 51°54' E 004°29'0 0.0
2014-Jul-12 21:33N 51°54' E 004°29'0 0.0
2014-Jul-12 20:33N 51°54' E 004°29'0 0.0
2014-Jul-12 19:33N 51°54' E 004°29'0 0.0
2014-Jul-12 18:33N 51°54' E 004°29'0 0.0
2014-Jul-12 17:33N 51°54' E 004°29'0 0.0
2014-Jul-12 16:33N 51°54' E 004°29'0 0.0
2014-Jul-12 15:33N 51°54' E 004°29'0 0.0
2014-Jul-12 14:33N 51°54' E 004°29'0 0.0
2014-Jul-12 13:33N 51°54' E 004°29'0 0.0
2014-Jul-12 12:33N 51°54' E 004°29'0 0.0
2014-Jul-12 11:33N 51°54' E 004°29'0 0.0
2014-Jul-12 10:33N 51°54' E 004°29'0 0.0
2014-Jul-12 09:33N 51°54' E 004°29'0 0.0
2014-Jul-12 08:33N 51°54' E 004°29'0 0.0
2014-Jul-12 07:33N 51°54' E 004°29'0 0.0
2014-Jul-12 06:33N 51°54' E 004°29'0 0.0
2014-Jul-12 05:33N 51°54' E 004°29'0 0.0
2014-Jul-12 04:33N 51°54' E 004°29'0 0.0
2014-Jul-12 03:33N 51°54' E 004°29'0 0.0
2014-Jul-12 02:33N 51°54' E 004°29'0 0.0
2014-Jul-12 01:33N 51°54' E 004°29'0 0.0
2014-Jul-12 00:33N 51°54' E 004°29'0 0.0
2014-Jul-11 23:33N 51°54' E 004°29'0 0.0
2014-Jul-11 22:33N 51°54' E 004°29'0 0.0
2014-Jul-11 21:33N 51°54' E 004°29'0 0.0
2014-Jul-11 20:33N 51°54' E 004°29'0 0.0
2014-Jul-11 19:33N 51°54' E 004°29'0 0.0
2014-Jul-11 18:33N 51°54' E 004°29'0 0.0
2014-Jul-11 17:33N 51°54' E 004°29'0 0.0
2014-Jul-11 16:33N 51°54' E 004°29'0 0.0
2014-Jul-11 15:33N 51°54' E 004°29'0 0.0
2014-Jul-11 14:33N 51°54' E 004°29'0 0.0
2014-Jul-11 13:33N 51°54' E 004°29'0 0.0
2014-Jul-11 12:33N 51°54' E 004°29'0 0.0
2014-Jul-11 11:33N 51°54' E 004°29'0 0.0
2014-Jul-11 10:33N 51°54' E 004°29'0 0.0
2014-Jul-11 09:33N 51°54' E 004°29'0 0.0
2014-Jul-11 08:33N 51°54' E 004°29'0 0.0
2014-Jul-11 07:33N 51°54' E 004°29'0 0.0
2014-Jul-11 06:33N 51°54' E 004°29'0 0.0
2014-Jul-11 05:33N 51°54' E 004°29'0 0.0
2014-Jul-11 04:33N 51°54' E 004°29'0 0.0
2014-Jul-11 03:33N 51°54' E 004°29'0 0.0
2014-Jul-11 02:33N 51°54' E 004°29'0 0.0
2014-Jul-11 01:33N 51°54' E 004°29'0 0.0
2014-Jul-11 00:33N 51°54' E 004°29'0 0.1
2014-Jul-10 23:33N 51°54' E 004°29'0 0.1
2014-Jul-10 22:33N 51°54' E 004°29'0 0.0
2014-Jul-10 21:33N 51°54' E 004°29'0 0.0
2014-Jul-10 20:33N 51°54' E 004°29'0 0.0
2014-Jul-10 19:33N 51°54' E 004°29'0 0.0
2014-Jul-10 18:33N 51°54' E 004°29'0 0.0
2014-Jul-10 17:33N 51°54' E 004°29'0 0.0
2014-Jul-10 16:33N 51°54' E 004°29'0 0.0
2014-Jul-10 15:33N 51°54' E 004°29'0 0.0
2014-Jul-10 14:33N 51°54' E 004°29'0 0.0
2014-Jul-10 13:33N 51°54' E 004°29'0 0.0
2014-Jul-10 12:33N 51°54' E 004°29'0 0.0
2014-Jul-10 11:33N 51°54' E 004°29'0 0.0
2014-Jul-10 10:33N 51°54' E 004°29'0 0.0
2014-Jul-10 09:33N 51°54' E 004°29'0 0.0
2014-Jul-10 08:33N 51°54' E 004°29'  

Dump ship's entire track history